^^
Your Local Weather - Clay, NY Station Historical Data
Daily Summary for February 6, 2018 Units:  Metric    English   Both
« Previous Day
Next Day »
Daily Weekly Monthly Yearly Custom
  High: Low: Average:
Temperature: -2.4 °C -12.7 °C -7.3 °C
Dew Point: -7.3 °C -15.2 °C -10.8 °C
Humidity: 89% 61% 77%
Wind Speed: 8km/h 0km/h 1.9km/h
Wind Gust: 16.1km/h - -
Wind- - WSW
Pressure: 1032.4 hPa 1022.2 hPa -
Precipitation: 0 mm    
Historical Graphs
 
 
Tabular Data for February 6, 2018
Time Temperature Dew Point Pressure Wind Wind Speed Wind Gust Humidity Rainfall Rate (Hourly) solar
00:00 -10.9 °C -13.2 °C 1023.2 hPa Calm     83% 0 mm 0 W/m2
00:06 -10.9 °C -13.2 °C 1023.6 hPa Calm     83% 0 mm 0 W/m2
00:12 -10.8 °C -13.2 °C 1023.2 hPa Calm     83% 0 mm 0 W/m2
00:18 -10.7 °C -13.1 °C 1023.2 hPa Calm     83% 0 mm 0 W/m2
00:24 -10.6 °C -12.9 °C 1023.2 hPa Calm     83% 0 mm 0 W/m2
00:30 -10.6 °C -12.9 °C 1022.9 hPa Calm     83% 0 mm 0 W/m2
00:36 -10.4 °C -12.8 °C 1023.2 hPa Calm     83% 0 mm 0 W/m2
00:42 -10.3 °C -12.7 °C 1023.2 hPa Calm     83% 0 mm 0 W/m2
00:48 -10.1 °C -12.4 °C 1023.6 hPa Calm   3.2 km/h 83% 0 mm 0 W/m2
00:54 -9.9 °C -12.3 °C 1023.6 hPa West 1.6 km/h 4.8 km/h 83% 0 mm 0 W/m2
01:00 -9.8 °C -12.3 °C 1023.6 hPa West 1.6 km/h 1.6 km/h 82% 0 mm 0 W/m2
01:06 -9.8 °C -12.5 °C 1023.6 hPa West 1.6 km/h 1.6 km/h 81% 0 mm 0 W/m2
01:12 -9.8 °C -12.4 °C 1023.6 hPa Calm     81% 0 mm 0 W/m2
02:24 -9.7 °C -12.4 °C 1022.9 hPa Calm   1.6 km/h 80% 0 mm 0 W/m2
02:30 -9.7 °C -12.4 °C 1022.9 hPa SSE 1.6 km/h 1.6 km/h 80% 0 mm 0 W/m2
02:36 -9.7 °C -12.4 °C 1022.9 hPa SSE 1.6 km/h 1.6 km/h 80% 0 mm 0 W/m2
02:42 -9.7 °C -12.5 °C 1022.9 hPa SSE 1.6 km/h 1.6 km/h 80% 0 mm 0 W/m2
02:48 -9.7 °C -12.4 °C 1022.9 hPa SSE 1.6 km/h 1.6 km/h 81% 0 mm 0 W/m2
02:54 -9.8 °C -12.4 °C 1022.9 hPa Calm   3.2 km/h 81% 0 mm 0 W/m2
03:00 -9.8 °C -12.3 °C 1022.9 hPa Calm     82% 0 mm 0 W/m2
03:06 -9.8 °C -12.3 °C 1022.9 hPa Calm     82% 0 mm 0 W/m2
03:12 -9.8 °C -12.1 °C 1022.9 hPa Calm     83% 0 mm 0 W/m2
03:18 -9.7 °C -12.1 °C 1022.9 hPa Calm     83% 0 mm 0 W/m2
03:24 -9.7 °C -11.9 °C 1022.9 hPa Calm     84% 0 mm 0 W/m2
03:30 -9.7 °C -11.9 °C 1022.6 hPa Calm     84% 0 mm 0 W/m2
03:36 -9.7 °C -11.9 °C 1022.6 hPa Calm     84% 0 mm 0 W/m2
03:42 -9.7 °C -11.8 °C 1022.6 hPa Calm     85% 0 mm 0 W/m2
03:48 -9.7 °C -11.7 °C 1022.6 hPa Calm     85% 0 mm 0 W/m2
03:54 -9.7 °C -11.7 °C 1022.6 hPa Calm     85% 0 mm 0 W/m2
04:04 -9.7 °C -11.6 °C 1022.2 hPa Calm     86% 0 mm 0 W/m2
04:10 -9.6 °C -11.5 °C 1022.2 hPa Calm     86% 0 mm 0 W/m2
04:16 -9.6 °C -11.5 °C 1022.2 hPa Calm   1.6 km/h 86% 0 mm 0 W/m2
04:22 -9.6 °C -11.4 °C 1022.2 hPa Calm     86% 0 mm 0 W/m2
04:28 -9.5 °C -11.4 °C 1022.2 hPa Calm     86% 0 mm 0 W/m2
04:34 -9.4 °C -11.2 °C 1022.2 hPa Calm     87% 0 mm 0 W/m2
04:40 -9.4 °C -11.2 °C 1022.6 hPa Calm     87% 0 mm 0 W/m2
04:46 -9.4 °C -11.2 °C 1022.6 hPa Calm     87% 0 mm 0 W/m2
04:52 -9.3 °C -11.1 °C 1022.6 hPa Calm     87% 0 mm 0 W/m2
04:58 -9.3 °C -11.1 °C 1022.6 hPa Calm     87% 0 mm 0 W/m2
05:04 -9.3 °C -11.1 °C 1022.6 hPa Calm     87% 0 mm 0 W/m2
05:10 -9.3 °C -11.1 °C 1022.6 hPa Calm     87% 0 mm 0 W/m2
05:16 -9.3 °C -11.1 °C 1022.6 hPa Calm   1.6 km/h 87% 0 mm 0 W/m2
05:22 -9.3 °C -11.1 °C 1022.6 hPa Calm     87% 0 mm 0 W/m2
05:28 -9.3 °C -11.1 °C 1022.9 hPa Calm     87% 0 mm 0 W/m2
05:34 -9.2 °C -11 °C 1022.9 hPa Calm     87% 0 mm 0 W/m2
05:40 -9.2 °C -11 °C 1022.9 hPa Calm     87% 0 mm 0 W/m2
05:46 -9.2 °C -10.8 °C 1022.9 hPa Calm     88% 0 mm 0 W/m2
05:52 -9.2 °C -10.9 °C 1022.9 hPa Calm     87% 0 mm 0 W/m2
05:58 -9.2 °C -10.9 °C 1022.9 hPa Calm     87% 0 mm 0 W/m2
06:04 -9.2 °C -10.9 °C 1022.9 hPa Calm     87% 0 mm 0 W/m2
06:10 -9.2 °C -10.8 °C 1023.2 hPa Calm     88% 0 mm 0 W/m2
06:16 -9.1 °C -10.7 °C 1023.2 hPa Calm     88% 0 mm 0 W/m2
06:22 -9.1 °C -10.7 °C 1023.6 hPa Calm     88% 0 mm 0 W/m2
06:28 -9.1 °C -10.7 °C 1023.6 hPa Calm     88% 0 mm 0 W/m2
06:34 -9.1 °C -10.7 °C 1023.6 hPa Calm     88% 0 mm 0 W/m2
06:40 -9 °C -10.6 °C 1023.9 hPa Calm     88% 0 mm 0 W/m2
06:46 -8.9 °C -10.6 °C 1023.9 hPa Calm     88% 0 mm 0 W/m2
06:52 -8.9 °C -10.6 °C 1023.9 hPa Calm     88% 0 mm 0 W/m2
06:58 -8.9 °C -10.6 °C 1023.9 hPa Calm     88% 0 mm 0 W/m2
07:04 -8.9 °C -10.6 °C 1024.3 hPa Calm     88% 0 mm 0 W/m2
07:10 -8.9 °C -10.6 °C 1024.3 hPa Calm     88% 0 mm 0 W/m2
07:16 -8.9 °C -10.5 °C 1024.3 hPa Calm     88% 0 mm 0 W/m2
07:22 -8.8 °C -10.4 °C 1024.3 hPa Calm     88% 0 mm 0 W/m2
07:28 -8.8 °C -10.4 °C 1024.6 hPa Calm     88% 0 mm 0 W/m2
07:34 -8.7 °C -10.3 °C 1024.6 hPa Calm     88% 0 mm 0 W/m2
07:40 -8.7 °C -10.3 °C 1024.6 hPa Calm     88% 0 mm 5 W/m2
07:46 -8.6 °C -10.2 °C 1024.6 hPa Calm     88% 0 mm 7 W/m2
07:52 -8.4 °C -9.9 °C 1024.6 hPa Calm     89% 0 mm 16 W/m2
07:58 -8.1 °C -9.6 °C 1024.6 hPa Calm     89% 0 mm 21 W/m2
08:04 -7.7 °C -9.2 °C 1024.6 hPa Calm   1.6 km/h 89% 0 mm 28 W/m2
08:10 -7.3 °C -8.8 °C 1024.9 hPa SSE 1.6 km/h 1.6 km/h 89% 0 mm 30 W/m2
08:16 -7.1 °C -8.6 °C 1024.9 hPa SSE 1.6 km/h 4.8 km/h 89% 0 mm 28 W/m2
08:22 -6.9 °C -8.4 °C 1024.9 hPa South 1.6 km/h 1.6 km/h 89% 0 mm 30 W/m2
08:28 -6.7 °C -8.2 °C 1024.9 hPa SSW 1.6 km/h 3.2 km/h 89% 0 mm 32 W/m2
08:34 -6.7 °C -8.2 °C 1024.9 hPa SSW 3.2 km/h 4.8 km/h 89% 0 mm 35 W/m2
08:40 -6.6 °C -8.1 °C 1024.9 hPa SSW 1.6 km/h 4.8 km/h 89% 0 mm 39 W/m2
08:46 -6.4 °C -8.1 °C 1024.9 hPa SSW 1.6 km/h 4.8 km/h 88% 0 mm 44 W/m2
08:52 -6.3 °C -7.9 °C 1024.9 hPa SW 3.2 km/h 4.8 km/h 88% 0 mm 47 W/m2
08:58 -6.2 °C -7.8 °C 1024.9 hPa SW 1.6 km/h 4.8 km/h 88% 0 mm 49 W/m2
09:04 -6.1 °C -7.7 °C 1024.9 hPa SW 3.2 km/h 4.8 km/h 88% 0 mm 56 W/m2
09:10 -5.9 °C -7.8 °C 1024.9 hPa SSW 3.2 km/h 3.2 km/h 87% 0 mm 62 W/m2
09:16 -5.8 °C -7.7 °C 1024.9 hPa SW 4.8 km/h 8 km/h 87% 0 mm 63 W/m2
09:22 -5.7 °C -7.6 °C 1024.9 hPa SW 4.8 km/h 9.7 km/h 86% 0 mm 76 W/m2
09:28 -5.5 °C -7.6 °C 1025.3 hPa SSW 4.8 km/h 9.7 km/h 85% 0 mm 79 W/m2
09:34 -5.3 °C -7.4 °C 1025.3 hPa SW 4.8 km/h 8 km/h 85% 0 mm 81 W/m2
09:40 -5.2 °C -7.4 °C 1025.3 hPa SW 3.2 km/h 3.2 km/h 84% 0 mm 90 W/m2
09:46 -5.1 °C -7.3 °C 1025.3 hPa WSW 3.2 km/h 6.4 km/h 84% 0 mm 91 W/m2
09:52 -4.9 °C -7.3 °C 1025.6 hPa SW 4.8 km/h 4.8 km/h 83% 0 mm 81 W/m2
09:58 -4.8 °C -7.4 °C 1025.6 hPa SW 4.8 km/h 6.4 km/h 82% 0 mm 72 W/m2
10:04 -4.8 °C -7.6 °C 1025.6 hPa SW 4.8 km/h 9.7 km/h 81% 0 mm 76 W/m2
10:10 -4.7 °C -7.5 °C 1025.6 hPa South 3.2 km/h 3.2 km/h 81% 0 mm 142 W/m2
10:16 -4.6 °C -7.5 °C 1025.6 hPa SW 4.8 km/h 4.8 km/h 80% 0 mm 137 W/m2
10:22 -4.5 °C -7.8 °C 1025.6 hPa West 6.4 km/h 8 km/h 78% 0 mm 123 W/m2
10:28 -4.4 °C -8.1 °C 1025.6 hPa SSW 6.4 km/h 9.7 km/h 76% 0 mm 141 W/m2
10:34 -4.3 °C -7.7 °C 1025.6 hPa SW 6.4 km/h 6.4 km/h 77% 0 mm 137 W/m2
10:40 -4.3 °C -8.1 °C 1026 hPa SW 4.8 km/h 4.8 km/h 75% 0 mm 105 W/m2
10:46 -4.2 °C -8 °C 1026 hPa WSW 6.4 km/h 8 km/h 75% 0 mm 163 W/m2
10:52 -4.2 °C -8.3 °C 1026.3 hPa WSW 4.8 km/h 9.7 km/h 73% 0 mm 127 W/m2
10:58 -4.1 °C -8.2 °C 1026 hPa SSW 8 km/h 11.3 km/h 73% 0 mm 295 W/m2
11:04 -3.9 °C -8.3 °C 1026.3 hPa SW 8 km/h 11.3 km/h 72% 0 mm 336 W/m2
11:10 -3.6 °C -7.9 °C 1026 hPa West 4.8 km/h 8 km/h 72% 0 mm 380 W/m2
11:16 -3.7 °C -8.6 °C 1026 hPa West 6.4 km/h 16.1 km/h 69% 0 mm 410 W/m2
11:22 -3.6 °C -8.5 °C 1026.3 hPa WSW 8 km/h 11.3 km/h 69% 0 mm 318 W/m2
11:28 -3.3 °C -8.4 °C 1026 hPa West 4.8 km/h 11.3 km/h 68% 0 mm 482 W/m2
11:34 -3 °C -8.1 °C 1026 hPa West 4.8 km/h 8 km/h 68% 0 mm 424 W/m2
11:40 -2.4 °C -8.1 °C 1026 hPa West 4.8 km/h 4.8 km/h 65% 0 mm 517 W/m2
11:46 -2.7 °C -8.6 °C 1026 hPa WNW 4.8 km/h 9.7 km/h 64% 0 mm 455 W/m2
11:52 -3.2 °C -8.9 °C 1026.3 hPa SW 6.4 km/h 14.5 km/h 65% 0 mm 221 W/m2
11:58 -3.4 °C -8.9 °C 1026.3 hPa West 6.4 km/h 14.5 km/h 66% 0 mm 216 W/m2
12:04 -3.3 °C -8.8 °C 1026.3 hPa WNW 4.8 km/h 6.4 km/h 66% 0 mm 178 W/m2
12:10 -3.5 °C -9.1 °C 1026.3 hPa West 4.8 km/h 6.4 km/h 65% 0 mm 141 W/m2
12:16 -3.6 °C -9.2 °C 1026.3 hPa WSW 6.4 km/h 6.4 km/h 65% 0 mm 188 W/m2
12:22 -3.6 °C -9.2 °C 1026.6 hPa WNW 6.4 km/h 12.9 km/h 65% 0 mm 162 W/m2
12:28 -3.7 °C -9.3 °C 1026.3 hPa WSW 6.4 km/h 12.9 km/h 65% 0 mm 155 W/m2
12:34 -3.7 °C -9.1 °C 1026.6 hPa West 8 km/h 11.3 km/h 66% 0 mm 135 W/m2
12:40 -3.7 °C -9.1 °C 1026.6 hPa WSW 6.4 km/h 6.4 km/h 66% 0 mm 127 W/m2
12:46 -3.6 °C -9.1 °C 1026.6 hPa West 3.2 km/h 12.9 km/h 66% 0 mm 139 W/m2
12:52 -3.6 °C -9.1 °C 1026.6 hPa NW 4.8 km/h 6.4 km/h 66% 0 mm 132 W/m2
12:58 -3.7 °C -9.1 °C 1026.6 hPa NW 4.8 km/h 8 km/h 66% 0 mm 132 W/m2
13:04 -3.7 °C -9.1 °C 1026.6 hPa WNW 4.8 km/h 8 km/h 66% 0 mm 123 W/m2
13:10 -3.7 °C -9.1 °C 1026.6 hPa West 4.8 km/h 4.8 km/h 66% 0 mm 130 W/m2
13:16 -3.7 °C -9.3 °C 1026.6 hPa West 3.2 km/h 4.8 km/h 65% 0 mm 137 W/m2
13:22 -3.6 °C -9.2 °C 1026.6 hPa WSW 3.2 km/h 11.3 km/h 65% 0 mm 149 W/m2
13:28 -3.6 °C -9.2 °C 1026.6 hPa WSW 6.4 km/h 11.3 km/h 65% 0 mm 179 W/m2
13:34 -3.6 °C -9.1 °C 1026.6 hPa WSW 6.4 km/h 8 km/h 66% 0 mm 190 W/m2
13:40 -3.5 °C -8.9 °C 1026.6 hPa WNW 4.8 km/h 4.8 km/h 66% 0 mm 199 W/m2
13:46 -3.5 °C -8.9 °C 1026.6 hPa NW 4.8 km/h 4.8 km/h 66% 0 mm 174 W/m2
13:52 -3.6 °C -9 °C 1026.6 hPa West 6.4 km/h 6.4 km/h 66% 0 mm 227 W/m2
13:58 -3.6 °C -9 °C 1027 hPa WNW 6.4 km/h 14.5 km/h 66% 0 mm 211 W/m2
14:04 -3.5 °C -9.1 °C 1027 hPa NW 4.8 km/h 8 km/h 65% 0 mm 172 W/m2
14:10 -3.5 °C -9.1 °C 1026.6 hPa WSW 4.8 km/h 9.7 km/h 65% 0 mm 272 W/m2
14:16 -3.2 °C -9 °C 1027 hPa WNW 6.4 km/h 9.7 km/h 64% 0 mm 207 W/m2
14:22 -3.3 °C -9.1 °C 1026.6 hPa West 4.8 km/h 4.8 km/h 64% 0 mm 246 W/m2
14:28 -3.2 °C -9.3 °C 1027 hPa NW 4.8 km/h 11.3 km/h 63% 0 mm 193 W/m2
14:34 -3.4 °C -9.4 °C 1027 hPa West 6.4 km/h 6.4 km/h 63% 0 mm 171 W/m2
14:40 -3.4 °C -9.3 °C 1027 hPa SW 6.4 km/h 12.9 km/h 64% 0 mm 283 W/m2
14:46 -3.1 °C -9.2 °C 1027 hPa WSW 4.8 km/h 12.9 km/h 63% 0 mm 192 W/m2
14:52 -3.4 °C -9.6 °C 1027 hPa West 6.4 km/h 11.3 km/h 62% 0 mm 142 W/m2
14:58 -3.4 °C -9.5 °C 1027.3 hPa WSW 6.4 km/h 11.3 km/h 63% 0 mm 123 W/m2
15:04 -3.5 °C -9.6 °C 1027.3 hPa West 4.8 km/h 8 km/h 63% 0 mm 148 W/m2
15:10 -3.5 °C -9.3 °C 1027.7 hPa WSW 6.4 km/h 6.4 km/h 64% 0 mm 135 W/m2
15:16 -3.5 °C -9.3 °C 1027.7 hPa WSW 6.4 km/h 8 km/h 64% 0 mm 113 W/m2
15:22 -3.5 °C -9.6 °C 1027.7 hPa WNW 4.8 km/h 4.8 km/h 63% 0 mm 116 W/m2
15:28 -3.5 °C -9.6 °C 1027.7 hPa WNW 4.8 km/h 6.4 km/h 63% 0 mm 128 W/m2
15:34 -3.4 °C -9.5 °C 1027.7 hPa NW 3.2 km/h 4.8 km/h 63% 0 mm 120 W/m2
15:40 -3.4 °C -9.8 °C 1028 hPa WNW 4.8 km/h 6.4 km/h 61% 0 mm 132 W/m2
15:46 -3.4 °C -9.6 °C 1028.3 hPa NW 4.8 km/h 6.4 km/h 62% 0 mm 81 W/m2
15:52 -3.6 °C -9.7 °C 1028.7 hPa NNW 4.8 km/h 4.8 km/h 63% 0 mm 63 W/m2
15:58 -3.7 °C -9.7 °C 1028.7 hPa NNW 4.8 km/h 4.8 km/h 63% 0 mm 62 W/m2
16:04 -3.8 °C -9.8 °C 1029 hPa WNW 4.8 km/h 4.8 km/h 63% 0 mm 47 W/m2
16:10 -3.8 °C -9.8 °C 1029 hPa NNW 3.2 km/h 3.2 km/h 63% 0 mm 47 W/m2
16:16 -3.8 °C -9.8 °C 1029.3 hPa NNW 3.2 km/h 4.8 km/h 63% 0 mm 47 W/m2
16:22 -3.8 °C -9.8 °C 1029.3 hPa NW 4.8 km/h 6.4 km/h 63% 0 mm 51 W/m2
16:28 -3.8 °C -10.2 °C 1029.3 hPa NW 4.8 km/h 6.4 km/h 61% 0 mm 74 W/m2
16:34 -3.8 °C -10.2 °C 1029.3 hPa NW 3.2 km/h 4.8 km/h 61% 0 mm 60 W/m2
16:40 -3.8 °C -10.3 °C 1029.3 hPa West 3.2 km/h 4.8 km/h 61% 0 mm 54 W/m2
16:46 -3.9 °C -10.2 °C 1029.3 hPa WNW 3.2 km/h 4.8 km/h 62% 0 mm 46 W/m2
16:52 -4.1 °C -10.3 °C 1029.3 hPa WNW 3.2 km/h 6.4 km/h 62% 0 mm 39 W/m2
16:58 -4.2 °C -10.4 °C 1029.3 hPa West 3.2 km/h 6.4 km/h 62% 0 mm 28 W/m2
17:04 -4.3 °C -10.6 °C 1029.7 hPa West 1.6 km/h 3.2 km/h 62% 0 mm 23 W/m2
17:10 -4.4 °C -10.4 °C 1029.7 hPa West 1.6 km/h 4.8 km/h 63% 0 mm 14 W/m2
17:16 -4.6 °C -10.6 °C 1029.7 hPa West 1.6 km/h 4.8 km/h 63% 0 mm 7 W/m2
17:22 -4.8 °C -10.8 °C 1029.7 hPa West 1.6 km/h 1.6 km/h 63% 0 mm 5 W/m2
17:28 -4.9 °C -10.8 °C 1029.7 hPa Calm   1.6 km/h 63% 0 mm 0 W/m2
17:34 -5.2 °C -10.9 °C 1030 hPa Calm     64% 0 mm 0 W/m2
17:40 -5.4 °C -11.2 °C 1030 hPa Calm     64% 0 mm 0 W/m2
17:46 -5.7 °C -11.3 °C 1030 hPa Calm     65% 0 mm 0 W/m2
17:52 -6.1 °C -11.4 °C 1030 hPa Calm     66% 0 mm 0 W/m2
17:58 -6.4 °C -11.6 °C 1030.4 hPa Calm     67% 0 mm 0 W/m2
18:04 -6.7 °C -11.7 °C 1030.4 hPa Calm     68% 0 mm 0 W/m2
18:10 -6.9 °C -11.7 °C 1030.4 hPa Calm     69% 0 mm 0 W/m2
18:16 -7.1 °C -11.6 °C 1030.7 hPa Calm     70% 0 mm 0 W/m2
18:22 -7.2 °C -11.8 °C 1030.7 hPa Calm     70% 0 mm 0 W/m2
18:28 -7.5 °C -11.8 °C 1030.7 hPa Calm     71% 0 mm 0 W/m2
18:34 -7.8 °C -12.2 °C 1030.7 hPa Calm     71% 0 mm 0 W/m2
18:40 -8.1 °C -12.3 °C 1031 hPa Calm     72% 0 mm 0 W/m2
18:46 -8.4 °C -12.6 °C 1031 hPa Calm     72% 0 mm 0 W/m2
18:52 -8.8 °C -12.7 °C 1031.4 hPa Calm     73% 0 mm 0 W/m2
18:58 -9.1 °C -12.9 °C 1031.4 hPa Calm     74% 0 mm 0 W/m2
19:04 -9.3 °C -13.1 °C 1031.4 hPa Calm     74% 0 mm 0 W/m2
19:10 -9.6 °C -13.2 °C 1031.4 hPa Calm     75% 0 mm 0 W/m2
19:16 -9.7 °C -13.3 °C 1031.4 hPa Calm     75% 0 mm 0 W/m2
19:22 -10.1 °C -13.5 °C 1031.4 hPa Calm     76% 0 mm 0 W/m2
19:28 -10.3 °C -13.7 °C 1031.7 hPa Calm     76% 0 mm 0 W/m2
19:34 -10.4 °C -13.7 °C 1032.1 hPa Calm     77% 0 mm 0 W/m2
19:40 -10.5 °C -13.6 °C 1032.1 hPa Calm     78% 0 mm 0 W/m2
19:46 -10.6 °C -13.5 °C 1032.1 hPa Calm     79% 0 mm 0 W/m2
19:52 -10.5 °C -13.4 °C 1032.1 hPa Calm     79% 0 mm 0 W/m2
19:58 -10.3 °C -13.1 °C 1032.1 hPa Calm     80% 0 mm 0 W/m2
20:04 -10.1 °C -12.8 °C 1032.1 hPa Calm     81% 0 mm 0 W/m2
20:10 -10.1 °C -12.7 °C 1032.1 hPa Calm     81% 0 mm 0 W/m2
20:16 -10.1 °C -12.7 °C 1032.4 hPa Calm     81% 0 mm 0 W/m2
20:22 -10 °C -12.7 °C 1032.4 hPa Calm     81% 0 mm 0 W/m2
20:28 -9.9 °C -12.6 °C 1032.1 hPa Calm     81% 0 mm 0 W/m2
20:34 -9.8 °C -12.5 °C 1032.4 hPa Calm     81% 0 mm 0 W/m2
20:40 -9.8 °C -12.5 °C 1032.4 hPa Calm     81% 0 mm 0 W/m2
20:46 -9.8 °C -12.5 °C 1032.4 hPa Calm     81% 0 mm 0 W/m2
20:52 -9.7 °C -12.4 °C 1032.4 hPa Calm     80% 0 mm 0 W/m2
20:58 -9.4 °C -12.3 °C 1032.4 hPa Calm     80% 0 mm 0 W/m2
21:04 -9.3 °C -12.2 °C 1032.4 hPa Calm     80% 0 mm 0 W/m2
21:10 -9.2 °C -12.2 °C 1032.4 hPa Calm     79% 0 mm 0 W/m2
21:16 -9.1 °C -12.1 °C 1032.4 hPa Calm     79% 0 mm 0 W/m2
21:22 -8.9 °C -12.1 °C 1032.4 hPa Calm     78% 0 mm 0 W/m2
21:28 -8.9 °C -12.3 °C 1032.4 hPa Calm     76% 0 mm 0 W/m2
21:34 -8.6 °C -12.1 °C 1032.4 hPa Calm   1.6 km/h 76% 0 mm 0 W/m2
21:40 -8.2 °C -11.9 °C 1032.1 hPa Calm     75% 0 mm 0 W/m2
21:46 -8.2 °C -12.2 °C 1032.4 hPa Calm     73% 0 mm 0 W/m2
21:52 -8.4 °C -12.6 °C 1032.4 hPa Calm     72% 0 mm 0 W/m2
21:58 -8.8 °C -12.9 °C 1032.1 hPa Calm     72% 0 mm 0 W/m2
22:04 -9.3 °C -13.3 °C 1032.1 hPa Calm     73% 0 mm 0 W/m2
22:10 -9.9 °C -13.7 °C 1032.1 hPa Calm     74% 0 mm 0 W/m2
22:16 -10.2 °C -13.8 °C 1032.1 hPa Calm     75% 0 mm 0 W/m2
22:22 -10.4 °C -14 °C 1032.1 hPa Calm     75% 0 mm 0 W/m2
22:28 -10.7 °C -14.1 °C 1032.1 hPa Calm     76% 0 mm 0 W/m2
22:34 -10.8 °C -14.1 °C 1032.4 hPa Calm     77% 0 mm 0 W/m2
22:40 -10.9 °C -14.1 °C 1032.4 hPa Calm     78% 0 mm 0 W/m2
22:46 -11.1 °C -14.1 °C 1032.4 hPa Calm     78% 0 mm 0 W/m2
22:52 -11.2 °C -14.2 °C 1032.4 hPa Calm     78% 0 mm 0 W/m2
22:58 -11.4 °C -14.3 °C 1032.4 hPa Calm     79% 0 mm 0 W/m2
23:04 -11.5 °C -14.4 °C 1032.1 hPa Calm     79% 0 mm 0 W/m2
23:10 -11.6 °C -14.5 °C 1032.1 hPa Calm     79% 0 mm 0 W/m2
23:16 -11.9 °C -14.7 °C 1032.1 hPa Calm     80% 0 mm 0 W/m2
23:22 -12.1 °C -14.8 °C 1032.4 hPa Calm     80% 0 mm 0 W/m2
23:28 -12.2 °C -14.8 °C 1032.4 hPa Calm     81% 0 mm 0 W/m2
23:34 -12.3 °C -14.9 °C 1032.4 hPa Calm   1.6 km/h 81% 0 mm 0 W/m2
23:40 -12.6 °C -15.2 °C 1032.4 hPa Calm     81% 0 mm 0 W/m2
23:46 -12.6 °C -15.1 °C 1032.4 hPa Calm     82% 0 mm 0 W/m2
23:52 -12.7 °C -15.1 °C 1032.4 hPa Calm     82% 0 mm 0 W/m2
23:58 -12.7 °C -15.2 °C 1032.4 hPa Calm     82% 0 mm 0 W/m2
Country Meadow, Clay, NY, USA
Compliments of Weather Underground - 2 mb